Gillette, WY

05:52 MST le 19 janvier 2017 (GMT -0700)
Gillette-Campbell County | | Change Station

Alt. 4364 ft 44.35 °N, 105.54 °W | Updated 59 minutes ago

Nuageux
Nuageux
33 ° F
Paraît 22 ° F
N
17
Vent Variable Vent de SO

Aujourd'hui
Haut(e) -- | Bas -- ° F
--% Risque de précip.
Hier
Haut(e) -- | Bas -- ° F
Precip. -- pouce
Pression 29.55 pouce
Visibilité 10.0 Miles terrestres
Nuages Ciel dégagé
Refroidissement éolien 22 ° F
Point de rosée 18 ° F
Humidité 54%
Précipitations 0.00 pouce
Profondeur de la couche neigeuse Non disponible.
7:32 AM 4:54 PM
Lune gibbeuse décroissante, 54% visible
METAR KGCC 191153Z AUTO 22015KT 10SM CLR 01/M08 A2952 RMK AO2 SLP005 T00061078 10011 21011 56018
Pression 29.55 pouce
Visibilité 10.0 Miles terrestres
Nuages Ciel dégagé
Refroidissement éolien 22 ° F
Point de rosée 18 ° F
Humidité 54%
Précipitations 0.00 pouce
Profondeur de la couche neigeuse Non disponible.
7:32 AM 4:54 PM
Lune gibbeuse décroissante, 54% visible
METAR KGCC 191153Z AUTO 22015KT 10SM CLR 01/M08 A2952 RMK AO2 SLP005 T00061078 10011 21011 56018

Get Your Daily Forecast Email!

Thanks for signing up!

Be on the lookout for a verification email in your inbox.

You'll start receiving the daily forecast at 8 AM.

×

10-Day Weather Forecast

Almanac

Astronomie

Jan. 19, 2017 Lever Coucher
Temps réel
Crépuscule civil
Crépuscule nautique
Crépuscule astronomique
Lune
Durée de lumière visible
Longueur du jour
Tomorrow will be .
, % of the Moon is Illuminated

Extrêmes aujourd'hui

State Highs State Lows

Community

WunderPhotos

Upload Photos

1,962,540 Photos téléchargées !

WunderBlog® & News

Nearby

Qualité de l'air

  Qualité de l'air Indice de la qualité de l'air Polluant
Not available.

Épaisseur de neige

Station Depth Altitude

Activité sismique

Ville Distance Mag. Time & Date
Minimum magnitude displayed is 2.5.

Températures des eaux côtières

Lieu Température

Stations

Stations météo à proximité

Emplacement de la station Température Refroidissement éolien Point de rosée Humidité Vent Precip. Alt. Mise à jour Type
                   

Watches & Warnings

There are currently no watches in effect.